createdAt,value
2023-01-28T00:02:54.668Z,1.90
2023-01-28T00:07:57.725Z,2.97
2023-01-28T00:12:59.154Z,3.70
2023-01-28T00:18:00.696Z,2.60
2023-01-28T00:23:02.263Z,2.70
2023-01-28T00:28:03.723Z,3.22
2023-01-28T00:33:05.184Z,2.40
2023-01-28T00:38:06.633Z,3.45
2023-01-28T00:43:08.031Z,2.60
2023-01-28T00:48:09.550Z,2.35
2023-01-28T00:53:10.995Z,2.35
2023-01-28T00:58:12.385Z,5.30
2023-01-28T01:03:13.860Z,2.33
2023-01-28T01:08:15.300Z,2.30
2023-01-28T01:13:16.716Z,2.50
2023-01-28T01:18:18.721Z,2.30
2023-01-28T01:23:20.106Z,2.25
2023-01-28T01:28:22.389Z,2.10
2023-01-28T01:33:23.808Z,2.92
2023-01-28T01:38:26.171Z,2.30
2023-01-28T01:43:57.159Z,2.60
2023-01-28T01:49:14.719Z,2.25
2023-01-28T01:54:17.347Z,2.20
2023-01-28T01:59:25.373Z,2.30
2023-01-28T02:04:30.989Z,2.08
2023-01-28T02:09:36.090Z,2.15
2023-01-28T02:14:44.432Z,2.58
2023-01-28T02:19:58.749Z,2.03
2023-01-28T02:25:42.966Z,1.88
2023-01-28T02:31:10.488Z,2.20
2023-01-28T02:36:25.116Z,2.80
2023-01-28T02:41:35.750Z,2.70
2023-01-28T02:46:56.658Z,2.75
2023-01-28T02:52:05.996Z,2.83
2023-01-28T02:57:13.729Z,2.45
2023-01-28T03:02:27.245Z,2.22
2023-01-28T03:07:32.309Z,2.30
2023-01-28T03:12:55.677Z,2.58
2023-01-28T03:18:30.483Z,2.22
2023-01-28T03:24:22.823Z,1.98
2023-01-28T03:29:44.676Z,2.30
2023-01-28T03:35:06.046Z,2.10
2023-01-28T03:40:08.215Z,2.70
2023-01-28T03:45:10.190Z,3.08
2023-01-28T03:50:11.768Z,1.90
2023-01-28T03:55:14.669Z,2.42
2023-01-28T04:00:18.141Z,1.73
2023-01-28T04:05:20.271Z,2.40
2023-01-28T04:10:22.018Z,2.10
2023-01-28T04:15:24.029Z,2.75
2023-01-28T04:20:25.443Z,2.55
2023-01-28T04:25:26.911Z,2.42
2023-01-28T04:30:28.477Z,1.88
2023-01-28T04:35:29.957Z,2.85
2023-01-28T04:40:31.416Z,2.55
2023-01-28T04:45:32.814Z,2.88
2023-01-28T04:50:34.271Z,2.05
2023-01-28T04:55:36.019Z,3.30
2023-01-28T05:00:37.510Z,4.00
2023-01-28T05:05:38.902Z,4.18
2023-01-28T05:10:40.514Z,4.30
2023-01-28T05:15:41.985Z,3.70
2023-01-28T05:20:43.371Z,4.03
2023-01-28T05:25:45.834Z,3.88
2023-01-28T05:30:47.281Z,4.63
2023-01-28T05:35:49.786Z,6.38
2023-01-28T05:40:51.250Z,5.57
2023-01-28T05:45:53.760Z,5.00
2023-01-28T05:50:55.294Z,4.78
2023-01-28T05:55:56.951Z,5.18
2023-01-28T06:00:58.422Z,5.47
2023-01-28T06:05:59.893Z,6.97
2023-01-28T06:11:01.329Z,5.93
2023-01-28T06:16:03.608Z,4.70
2023-01-28T06:21:05.317Z,5.10
2023-01-28T06:26:06.863Z,4.63
2023-01-28T06:31:08.429Z,5.00
2023-01-28T06:36:10.130Z,4.43
2023-01-28T06:41:11.577Z,5.18
2023-01-28T06:46:13.325Z,4.97
2023-01-28T06:51:14.881Z,5.30
2023-01-28T06:56:16.385Z,4.60
2023-01-28T07:01:17.858Z,5.22
2023-01-28T07:06:19.407Z,5.00
2023-01-28T07:11:20.869Z,5.00
2023-01-28T07:16:22.613Z,4.65
2023-01-28T07:21:24.027Z,4.35
2023-01-28T07:26:25.494Z,4.75
2023-01-28T07:31:27.084Z,5.75
2023-01-28T07:36:28.643Z,5.00
2023-01-28T07:41:30.198Z,4.85
2023-01-28T07:46:31.830Z,4.82
2023-01-28T07:51:33.389Z,5.43
2023-01-28T07:56:34.885Z,5.47
2023-01-28T08:01:36.499Z,5.50
2023-01-28T08:06:38.041Z,5.22
2023-01-28T08:11:39.780Z,4.63
2023-01-28T08:16:41.259Z,6.10
2023-01-28T08:21:44.493Z,5.13
2023-01-28T08:26:48.422Z,4.47
2023-01-28T08:31:49.944Z,5.75
2023-01-28T08:36:51.558Z,5.30
2023-01-28T08:41:53.024Z,5.63
2023-01-28T08:46:54.514Z,4.43
2023-01-28T08:51:55.990Z,5.32
2023-01-28T08:56:57.381Z,5.47
2023-01-28T09:01:59.012Z,5.80
2023-01-28T09:07:02.005Z,5.25
2023-01-28T09:12:03.745Z,5.53
2023-01-28T09:17:05.626Z,5.43
2023-01-28T09:22:07.109Z,5.43
2023-01-28T09:27:08.825Z,4.93
2023-01-28T09:32:10.288Z,5.07
2023-01-28T09:37:12.259Z,6.57
2023-01-28T09:42:25.161Z,5.60
2023-01-28T09:47:30.608Z,4.95
2023-01-28T09:52:37.018Z,5.50
2023-01-28T09:57:45.580Z,5.57
2023-01-28T10:03:01.293Z,5.43
2023-01-28T10:08:26.622Z,5.00
2023-01-28T10:13:51.408Z,5.00
2023-01-28T10:19:02.789Z,4.85
2023-01-28T10:24:32.156Z,5.43
2023-01-28T10:29:35.279Z,9.25
2023-01-28T10:34:37.398Z,5.60
2023-01-28T10:39:38.925Z,5.63
2023-01-28T10:44:44.552Z,5.10
2023-01-28T10:49:51.882Z,7.40
2023-01-28T10:55:01.356Z,9.25
2023-01-28T11:00:24.453Z,5.38
2023-01-28T11:05:30.985Z,5.18
2023-01-28T11:10:35.438Z,6.57
2023-01-28T11:15:46.306Z,6.25
2023-01-28T11:21:19.617Z,7.72
2023-01-28T11:26:31.049Z,11.48
2023-01-28T11:31:41.725Z,6.10
2023-01-28T11:36:51.977Z,7.43
2023-01-28T11:41:54.098Z,5.20
2023-01-28T11:47:10.955Z,5.85
2023-01-28T11:53:05.933Z,5.25
2023-01-28T11:58:27.696Z,5.45
2023-01-28T12:08:52.482Z,4.75
2023-01-28T12:14:12.160Z,4.53
2023-01-28T12:19:24.058Z,5.90
2023-01-28T12:24:34.387Z,6.68
2023-01-28T12:29:50.584Z,4.40
2023-01-28T12:34:56.865Z,11.23
2023-01-28T12:40:10.595Z,4.82
2023-01-28T12:45:20.041Z,5.55
2023-01-28T12:50:29.893Z,5.60
2023-01-28T12:55:54.284Z,4.67
2023-01-28T13:01:03.645Z,4.55
2023-01-28T13:06:10.984Z,4.40
2023-01-28T13:11:17.172Z,5.03
2023-01-28T13:16:21.299Z,4.40
2023-01-28T13:21:29.044Z,4.05
2023-01-28T13:26:46.080Z,3.97
2023-01-28T13:31:52.312Z,4.18
2023-01-28T13:36:54.720Z,3.67
2023-01-28T13:42:10.318Z,3.60
2023-01-28T13:47:17.322Z,3.83
2023-01-28T13:52:37.575Z,3.28
2023-01-28T13:58:03.929Z,3.67
2023-01-28T14:03:07.050Z,6.03
2023-01-28T14:08:42.663Z,3.20
2023-01-28T14:14:19.543Z,3.50
2023-01-28T14:19:31.858Z,3.83
2023-01-28T14:24:33.952Z,4.93
2023-01-28T14:29:58.004Z,4.55
2023-01-28T14:35:05.823Z,4.78
2023-01-28T14:40:12.545Z,4.95
2023-01-28T14:45:55.248Z,4.63
2023-01-28T14:51:19.520Z,4.40
2023-01-28T14:56:35.537Z,4.50
2023-01-28T15:01:45.023Z,4.60
2023-01-28T15:06:46.576Z,5.18
2023-01-28T15:11:52.120Z,6.90
2023-01-28T15:16:54.463Z,7.57
2023-01-28T15:21:58.933Z,5.95
2023-01-28T15:27:01.372Z,10.07
2023-01-28T15:32:04.745Z,4.60
2023-01-28T15:37:06.382Z,3.55
2023-01-28T15:42:08.062Z,3.15
2023-01-28T15:47:28.770Z,3.53
2023-01-28T15:52:42.012Z,5.18
2023-01-28T15:57:43.531Z,3.25
2023-01-28T16:02:46.673Z,3.83
2023-01-28T16:07:48.192Z,3.17
2023-01-28T16:12:54.555Z,3.08
2023-01-28T16:17:56.145Z,3.10
2023-01-28T16:23:03.053Z,3.88
2023-01-28T16:28:18.750Z,3.10
2023-01-28T16:33:22.098Z,4.28
2023-01-28T16:38:23.605Z,3.15
2023-01-28T16:43:25.058Z,4.40
2023-01-28T16:48:26.534Z,3.80
2023-01-28T16:53:34.594Z,4.22
2023-01-28T16:58:36.335Z,5.43
2023-01-28T17:03:40.925Z,6.63
2023-01-28T17:08:42.443Z,4.35
2023-01-28T17:13:43.931Z,3.67
2023-01-28T17:18:46.907Z,3.65
2023-01-28T17:23:50.195Z,4.15
2023-01-28T17:28:53.425Z,3.72
2023-01-28T17:33:56.827Z,3.63
2023-01-28T17:38:58.286Z,4.40
2023-01-28T17:43:59.821Z,4.72
2023-01-28T17:49:01.983Z,4.30
2023-01-28T17:54:04.014Z,3.85
2023-01-28T17:59:06.602Z,3.30
2023-01-28T18:04:08.209Z,3.17
2023-01-28T18:09:10.050Z,3.92
2023-01-28T18:14:11.533Z,4.28
2023-01-28T18:19:12.951Z,3.72
2023-01-28T18:24:14.855Z,5.68
2023-01-28T18:29:20.387Z,5.85
2023-01-28T18:34:24.271Z,3.65
2023-01-28T18:39:30.146Z,3.63
2023-01-28T18:44:32.013Z,5.13
2023-01-28T18:49:33.531Z,3.60
2023-01-28T18:54:35.261Z,4.45
2023-01-28T18:59:36.680Z,3.92
2023-01-28T19:04:38.164Z,4.13
2023-01-28T19:09:39.636Z,4.30
2023-01-28T19:14:41.449Z,4.30
2023-01-28T19:19:42.918Z,4.80
2023-01-28T19:24:44.409Z,5.45
2023-01-28T19:29:46.023Z,5.95
2023-01-28T19:34:47.552Z,14.02
2023-01-28T19:39:49.178Z,5.38
2023-01-28T19:44:51.339Z,5.68
2023-01-28T19:49:52.790Z,8.52
2023-01-28T19:54:54.279Z,5.35
2023-01-28T19:59:55.755Z,6.80
2023-01-28T20:05:00.913Z,8.90
2023-01-28T20:10:02.761Z,4.35
2023-01-28T20:15:04.538Z,4.97
2023-01-28T20:20:06.834Z,4.88
2023-01-28T20:25:09.064Z,4.70
2023-01-28T20:30:11.275Z,5.45
2023-01-28T20:35:12.905Z,5.95
2023-01-28T20:40:14.589Z,7.00
2023-01-28T20:45:16.616Z,6.63
2023-01-28T20:50:19.900Z,5.70
2023-01-28T20:55:21.409Z,5.60
2023-01-28T21:00:23.618Z,4.75
2023-01-28T21:05:25.160Z,5.18
2023-01-28T21:10:26.683Z,7.25
2023-01-28T21:15:28.358Z,4.63
2023-01-28T21:20:31.938Z,5.05
2023-01-28T21:25:33.403Z,4.75
2023-01-28T21:30:34.922Z,5.00
2023-01-28T21:35:42.303Z,5.55
2023-01-28T21:40:43.755Z,4.30
2023-01-28T21:45:48.531Z,4.70
2023-01-28T21:51:08.829Z,4.40
2023-01-28T21:56:10.285Z,5.13
2023-01-28T22:01:11.905Z,4.53
2023-01-28T22:06:13.421Z,5.28
2023-01-28T22:11:14.839Z,4.63
2023-01-28T22:16:17.397Z,5.53
2023-01-28T22:21:18.845Z,5.28
2023-01-28T22:26:20.344Z,5.63
2023-01-28T22:31:21.917Z,5.28
2023-01-28T22:36:23.789Z,5.07
2023-01-28T22:41:25.625Z,4.13
2023-01-28T22:46:27.873Z,4.65
2023-01-28T22:51:34.798Z,5.28
2023-01-28T22:56:36.292Z,5.13
2023-01-28T23:01:37.883Z,4.97
2023-01-28T23:06:39.458Z,4.35
2023-01-28T23:11:40.877Z,4.90
2023-01-28T23:17:00.859Z,4.30
2023-01-28T23:22:20.740Z,4.28
2023-01-28T23:27:22.166Z,4.03
2023-01-28T23:32:23.686Z,4.93
2023-01-28T23:37:25.168Z,5.28
2023-01-28T23:42:26.632Z,5.15
2023-01-28T23:47:28.154Z,5.20
2023-01-28T23:52:29.670Z,5.15
2023-01-28T23:57:31.176Z,4.72
